EDW305 LSZH-VTSP
Flight info
| Callsign | EDW305 |
|---|---|
| Flight time | N/A |
| Altitude | 35000 |
| Route | DEGES Z2 TUNUM Z204 GEDSO DCT BERTA DCT MAGAM DCT TUVAR DCT ETIDA DCT WRN/N0469F370 DCT UDROS UM859 KARDE UL851 TBN UM11 REBLO M11 ERLEV L850 BAKUV N701 LARGI B701 TUGTA A909 NINOP/N0479F390 A909 LEMOD N644 DI A466 DPN L759 BBS/N0471F410 L759 SATVA SATVA1D |
| Aircraft | A343/H-SDE2E3FGHIJ4J5M1RWXY/LB1D1 |
Departure
| Time | 2026-04-30 20:49 |
|---|---|
| Airport | Zürich Airport (LSZH) |
Arrival
| Time | N/A |
|---|---|
| Airport | Phuket International Airport (VTSP) |
| Time | Latitude | Longitude | Altitude | Speed | Heading |
|---|---|---|---|---|---|
| 2026-04-30 20:19 | 47.46190 | 8.55285 | 1399 ft | 0 kts | 186° |
| 2026-04-30 20:36 | 47.46209 | 8.55287 | 1397 ft | 4 kts | 180° |
| 2026-04-30 20:37 | 47.46236 | 8.55285 | 1408 ft | 4 kts | 168° |
| 2026-04-30 20:37 | 47.46261 | 8.55272 | 1408 ft | 4 kts | 142° |
| 2026-04-30 20:37 | 47.46273 | 8.55249 | 1408 ft | 1 kts | 96° |
| 2026-04-30 20:37 | 47.46273 | 8.55248 | 1408 ft | 0 kts | 95° |
| 2026-04-30 20:40 | 47.46273 | 8.55251 | 1397 ft | 2 kts | 95° |
| 2026-04-30 20:41 | 47.46263 | 8.55410 | 1402 ft | 11 kts | 96° |
| 2026-04-30 20:41 | 47.46254 | 8.55534 | 1408 ft | 12 kts | 96° |
| 2026-04-30 20:41 | 47.46245 | 8.55651 | 1406 ft | 11 kts | 96° |
| 2026-04-30 20:41 | 47.46236 | 8.55767 | 1412 ft | 12 kts | 96° |
| 2026-04-30 20:42 | 47.46227 | 8.55878 | 1408 ft | 10 kts | 96° |
| 2026-04-30 20:42 | 47.46217 | 8.55972 | 1413 ft | 10 kts | 110° |
| 2026-04-30 20:42 | 47.46120 | 8.56117 | 1420 ft | 9 kts | 136° |
| 2026-04-30 20:43 | 47.46078 | 8.56174 | 1420 ft | 8 kts | 137° |
| 2026-04-30 20:43 | 47.46069 | 8.56185 | 1421 ft | 0 kts | 137° |
| 2026-04-30 20:45 | 47.46055 | 8.56205 | 1419 ft | 7 kts | 137° |
| 2026-04-30 20:45 | 47.46043 | 8.56275 | 1416 ft | 5 kts | 73° |
| 2026-04-30 20:45 | 47.46047 | 8.56284 | 1414 ft | 0 kts | 61° |
| 2026-04-30 20:47 | 47.46056 | 8.56307 | 1416 ft | 6 kts | 57° |
| 2026-04-30 20:47 | 47.46100 | 8.56384 | 1423 ft | 12 kts | 46° |
| 2026-04-30 20:48 | 47.46194 | 8.56358 | 1420 ft | 8 kts | 315° |
| 2026-04-30 20:48 | 47.46197 | 8.56353 | 1419 ft | 1 kts | 315° |
| 2026-04-30 20:48 | 47.46209 | 8.56336 | 1418 ft | 11 kts | 315° |
| 2026-04-30 20:48 | 47.46412 | 8.56058 | 1410 ft | 74 kts | 317° |
| 2026-04-30 20:49 | 47.46945 | 8.55332 | 1403 ft | 133 kts | 317° |
| 2026-04-30 20:49 | 47.47704 | 8.54266 | 1703 ft | 153 kts | 320° |
| 2026-04-30 20:49 | 47.48500 | 8.53232 | 2298 ft | 159 kts | 327° |
| 2026-04-30 20:50 | 47.50539 | 8.51078 | 2984 ft | 207 kts | 322° |
| 2026-04-30 20:50 | 47.51405 | 8.49243 | 3459 ft | 229 kts | 298° |
| 2026-04-30 20:50 | 47.51818 | 8.46823 | 3840 ft | 256 kts | 277° |
| 2026-04-30 20:50 | 47.51644 | 8.44177 | 4571 ft | 261 kts | 246° |
| 2026-04-30 20:51 | 47.50582 | 8.42117 | 5552 ft | 250 kts | 212° |
| 2026-04-30 20:51 | 47.47355 | 8.41883 | 7070 ft | 246 kts | 148° |
| 2026-04-30 20:51 | 47.46137 | 8.43627 | 7769 ft | 249 kts | 118° |
| 2026-04-30 20:52 | 47.45643 | 8.46134 | 8244 ft | 264 kts | 94° |
| 2026-04-30 20:52 | 47.45620 | 8.48886 | 8875 ft | 272 kts | 89° |
| 2026-04-30 20:52 | 47.45677 | 8.54575 | 10321 ft | 282 kts | 89° |
| 2026-04-30 20:53 | 47.45746 | 8.57552 | 10654 ft | 299 kts | 86° |
| 2026-04-30 20:53 | 47.45885 | 8.60716 | 10942 ft | 317 kts | 86° |
| 2026-04-30 20:53 | 47.46030 | 8.64049 | 11222 ft | 333 kts | 86° |
| 2026-04-30 20:54 | 47.46312 | 8.71197 | 11856 ft | 361 kts | 86° |
| 2026-04-30 20:54 | 47.46453 | 8.74925 | 12454 ft | 365 kts | 86° |
| 2026-04-30 20:54 | 47.46593 | 8.78685 | 13102 ft | 369 kts | 86° |
| 2026-04-30 20:55 | 47.46183 | 8.86189 | 14519 ft | 373 kts | 100° |
| 2026-04-30 20:55 | 47.45632 | 8.89969 | 15097 ft | 377 kts | 101° |
| 2026-04-30 20:55 | 47.45070 | 8.93776 | 15686 ft | 381 kts | 100° |
| 2026-04-30 20:56 | 47.43960 | 9.01490 | 16864 ft | 387 kts | 99° |
| 2026-04-30 20:56 | 47.43400 | 9.05401 | 17454 ft | 390 kts | 99° |
| 2026-04-30 20:56 | 47.42255 | 9.13306 | 18633 ft | 396 kts | 99° |
| 2026-04-30 20:57 | 47.41724 | 9.17308 | 19132 ft | 399 kts | 95° |
| 2026-04-30 20:57 | 47.41603 | 9.21392 | 19626 ft | 398 kts | 83° |
| 2026-04-30 20:57 | 47.41959 | 9.25447 | 20122 ft | 399 kts | 78° |
| 2026-04-30 20:58 | 47.43131 | 9.33523 | 21086 ft | 405 kts | 75° |
| 2026-04-30 20:58 | 47.43786 | 9.37526 | 21559 ft | 408 kts | 74° |
| 2026-04-30 20:58 | 47.44453 | 9.41617 | 22023 ft | 411 kts | 75° |
| 2026-04-30 20:58 | 47.45109 | 9.45738 | 22501 ft | 414 kts | 75° |
| 2026-04-30 20:59 | 47.46393 | 9.54096 | 23402 ft | 420 kts | 75° |
| 2026-04-30 20:59 | 47.46896 | 9.58368 | 23843 ft | 425 kts | 81° |
| 2026-04-30 21:00 | 47.46927 | 9.67188 | 24665 ft | 431 kts | 89° |
| 2026-04-30 21:00 | 47.46484 | 9.76046 | 25446 ft | 435 kts | 91° |
| 2026-04-30 21:01 | 47.45948 | 9.84978 | 26188 ft | 438 kts | 91° |
| 2026-04-30 21:01 | 47.45680 | 9.89462 | 26557 ft | 439 kts | 91° |
| 2026-04-30 21:01 | 47.45154 | 9.98485 | 27247 ft | 442 kts | 91° |
| 2026-04-30 21:02 | 47.44894 | 10.03013 | 27596 ft | 443 kts | 91° |
| 2026-04-30 21:02 | 47.44633 | 10.07554 | 28058 ft | 443 kts | 90° |
| 2026-04-30 21:02 | 47.44374 | 10.12025 | 28456 ft | 443 kts | 90° |
| 2026-04-30 21:02 | 47.44092 | 10.16567 | 28716 ft | 446 kts | 92° |
| 2026-04-30 21:03 | 47.43593 | 10.21178 | 29032 ft | 450 kts | 95° |
| 2026-04-30 21:03 | 47.43035 | 10.25670 | 29389 ft | 451 kts | 96° |
| 2026-04-30 21:03 | 47.42438 | 10.30215 | 29823 ft | 449 kts | 96° |
| 2026-04-30 21:03 | 47.41825 | 10.34733 | 30215 ft | 448 kts | 96° |
| 2026-04-30 21:04 | 47.41209 | 10.39228 | 30588 ft | 446 kts | 96° |
| 2026-04-30 21:04 | 47.40592 | 10.43716 | 30909 ft | 446 kts | 96° |
| 2026-04-30 21:04 | 47.39369 | 10.52620 | 31818 ft | 440 kts | 95° |
| 2026-04-30 21:05 | 47.38760 | 10.57049 | 32101 ft | 440 kts | 95° |
| 2026-04-30 21:05 | 47.38148 | 10.61479 | 32370 ft | 440 kts | 96° |
| 2026-04-30 21:05 | 47.37537 | 10.65897 | 32559 ft | 440 kts | 95° |
| 2026-04-30 21:05 | 47.36921 | 10.70320 | 32772 ft | 441 kts | 95° |
| 2026-04-30 21:06 | 47.36301 | 10.74759 | 33097 ft | 440 kts | 95° |
| 2026-04-30 21:06 | 47.35680 | 10.79186 | 33358 ft | 440 kts | 95° |
| 2026-04-30 21:06 | 47.35072 | 10.83500 | 33634 ft | 439 kts | 95° |
| 2026-04-30 21:07 | 47.34452 | 10.87900 | 34036 ft | 437 kts | 95° |
| 2026-04-30 21:07 | 47.33834 | 10.92277 | 34376 ft | 435 kts | 95° |
| 2026-04-30 21:07 | 47.33217 | 10.96646 | 34530 ft | 436 kts | 95° |
| 2026-04-30 21:07 | 47.32597 | 11.01023 | 34670 ft | 437 kts | 95° |
| 2026-04-30 21:08 | 47.32127 | 11.04342 | 34790 ft | 437 kts | 95° |
| 2026-04-30 21:08 | 47.31503 | 11.08727 | 34962 ft | 438 kts | 95° |
| 2026-04-30 21:08 | 47.30875 | 11.13125 | 35102 ft | 438 kts | 95° |
| 2026-04-30 21:08 | 47.30244 | 11.17527 | 35239 ft | 439 kts | 95° |
| 2026-04-30 21:09 | 47.28970 | 11.26372 | 35351 ft | 445 kts | 95° |
| 2026-04-30 21:09 | 47.27677 | 11.35282 | 35323 ft | 443 kts | 95° |
| 2026-04-30 21:10 | 47.26384 | 11.44124 | 35320 ft | 442 kts | 96° |
| 2026-04-30 21:10 | 47.24256 | 11.52736 | 35321 ft | 457 kts | 111° |
| 2026-04-30 21:11 | 47.20797 | 11.60678 | 35321 ft | 464 kts | 117° |
| 2026-04-30 21:11 | 47.17054 | 11.68458 | 35317 ft | 468 kts | 118° |
| 2026-04-30 21:12 | 47.13265 | 11.76238 | 35311 ft | 468 kts | 118° |
| 2026-04-30 21:12 | 47.09552 | 11.84006 | 35302 ft | 466 kts | 114° |
| 2026-04-30 21:13 | 47.06900 | 11.92458 | 35281 ft | 451 kts | 102° |
| 2026-04-30 21:13 | 47.04937 | 12.01174 | 35301 ft | 450 kts | 100° |
| 2026-04-30 21:14 | 47.03079 | 12.09925 | 35295 ft | 449 kts | 100° |
| 2026-04-30 21:14 | 47.01227 | 12.18596 | 35508 ft | 448 kts | 101° |
| 2026-04-30 21:15 | 47.00284 | 12.22954 | 35686 ft | 449 kts | 101° |
| 2026-04-30 21:15 | 46.99335 | 12.27317 | 35866 ft | 449 kts | 101° |
| 2026-04-30 21:15 | 46.98384 | 12.31668 | 36033 ft | 450 kts | 101° |
| 2026-04-30 21:15 | 46.97440 | 12.35975 | 36204 ft | 450 kts | 101° |
| 2026-04-30 21:16 | 46.96480 | 12.40343 | 36366 ft | 452 kts | 101° |
| 2026-04-30 21:16 | 46.95515 | 12.44728 | 36499 ft | 453 kts | 102° |
| 2026-04-30 21:16 | 46.94542 | 12.49132 | 36656 ft | 454 kts | 102° |
| 2026-04-30 21:16 | 46.93571 | 12.53519 | 36845 ft | 453 kts | 102° |
| 2026-04-30 21:17 | 46.92600 | 12.57898 | 37048 ft | 453 kts | 102° |
| 2026-04-30 21:17 | 46.91628 | 12.62288 | 37163 ft | 455 kts | 102° |
| 2026-04-30 21:17 | 46.90646 | 12.66702 | 37288 ft | 457 kts | 102° |
| 2026-04-30 21:17 | 46.89655 | 12.71144 | 37317 ft | 459 kts | 102° |
| 2026-04-30 21:18 | 46.87673 | 12.79990 | 37334 ft | 458 kts | 103° |
| 2026-04-30 21:18 | 46.85680 | 12.88860 | 37337 ft | 461 kts | 103° |
| 2026-04-30 21:19 | 46.83665 | 12.97796 | 37333 ft | 463 kts | 103° |
| 2026-04-30 21:19 | 46.81642 | 13.06717 | 37340 ft | 463 kts | 103° |
| 2026-04-30 21:20 | 46.79626 | 13.15576 | 37368 ft | 463 kts | 103° |
| 2026-04-30 21:20 | 46.77587 | 13.24509 | 37351 ft | 464 kts | 103° |
| 2026-04-30 21:21 | 46.75536 | 13.33447 | 37360 ft | 465 kts | 103° |
| 2026-04-30 21:22 | 46.72446 | 13.46846 | 37364 ft | 465 kts | 103° |
| 2026-04-30 21:23 | 46.68296 | 13.64716 | 37374 ft | 467 kts | 104° |
| 2026-04-30 21:23 | 46.65166 | 13.78096 | 37381 ft | 467 kts | 104° |
| 2026-04-30 21:24 | 46.63068 | 13.87022 | 37382 ft | 466 kts | 104° |
| 2026-04-30 21:24 | 46.60958 | 13.95960 | 37380 ft | 468 kts | 104° |
| 2026-04-30 21:25 | 46.57770 | 14.09395 | 37397 ft | 468 kts | 104° |
| 2026-04-30 21:26 | 46.54567 | 14.22807 | 37399 ft | 469 kts | 104° |
| 2026-04-30 21:27 | 46.51342 | 14.36240 | 37400 ft | 471 kts | 105° |
| 2026-04-30 21:27 | 46.49175 | 14.45218 | 37398 ft | 471 kts | 105° |
| 2026-04-30 21:28 | 46.45913 | 14.58642 | 37398 ft | 472 kts | 107° |
| 2026-04-30 21:29 | 46.41207 | 14.71314 | 37397 ft | 480 kts | 118° |
| 2026-04-30 21:30 | 46.32228 | 14.91733 | 37403 ft | 482 kts | 119° |
| 2026-04-30 21:31 | 46.23203 | 15.12207 | 37398 ft | 484 kts | 119° |
| 2026-04-30 21:32 | 46.17770 | 15.24475 | 37388 ft | 484 kts | 119° |
| 2026-04-30 21:32 | 46.14753 | 15.31263 | 37404 ft | 484 kts | 120° |
| 2026-04-30 21:33 | 46.09275 | 15.43551 | 37398 ft | 487 kts | 120° |
| 2026-04-30 21:34 | 46.05602 | 15.51756 | 37399 ft | 488 kts | 120° |
| 2026-04-30 21:34 | 46.00076 | 15.64055 | 37400 ft | 487 kts | 120° |
| 2026-04-30 21:35 | 45.96856 | 15.72551 | 37399 ft | 481 kts | 108° |
| 2026-04-30 21:35 | 45.94573 | 15.81590 | 37398 ft | 481 kts | 105° |
| 2026-04-30 21:36 | 45.92470 | 15.90640 | 37397 ft | 481 kts | 105° |
| 2026-04-30 21:37 | 45.88226 | 16.08869 | 37400 ft | 482 kts | 105° |
| 2026-04-30 21:37 | 45.86065 | 16.17994 | 37400 ft | 483 kts | 105° |
| 2026-04-30 21:38 | 45.83894 | 16.27111 | 37400 ft | 483 kts | 105° |
| 2026-04-30 21:38 | 45.81716 | 16.36219 | 37408 ft | 483 kts | 106° |
| 2026-04-30 21:39 | 45.79529 | 16.45333 | 37395 ft | 483 kts | 106° |
| 2026-04-30 21:39 | 45.77348 | 16.54387 | 37397 ft | 483 kts | 106° |
| 2026-04-30 21:40 | 45.75146 | 16.63488 | 37388 ft | 483 kts | 106° |
| 2026-04-30 21:40 | 45.72933 | 16.72601 | 37388 ft | 485 kts | 106° |
| 2026-04-30 21:41 | 45.70719 | 16.81683 | 37386 ft | 487 kts | 106° |
| 2026-04-30 21:41 | 45.68482 | 16.90819 | 37384 ft | 487 kts | 107° |
| 2026-04-30 21:42 | 45.66236 | 16.99953 | 37381 ft | 487 kts | 107° |
| 2026-04-30 21:42 | 45.63982 | 17.09083 | 37387 ft | 487 kts | 107° |
| 2026-04-30 21:43 | 45.61720 | 17.18213 | 37381 ft | 488 kts | 107° |
| 2026-04-30 21:43 | 45.59446 | 17.27351 | 37381 ft | 488 kts | 107° |
| 2026-04-30 21:44 | 45.57162 | 17.36489 | 37382 ft | 488 kts | 107° |
| 2026-04-30 21:44 | 45.54873 | 17.45616 | 37386 ft | 489 kts | 107° |
| 2026-04-30 21:45 | 45.52573 | 17.54751 | 37384 ft | 489 kts | 107° |
| 2026-04-30 21:45 | 45.50265 | 17.63877 | 37384 ft | 489 kts | 107° |
| 2026-04-30 21:46 | 45.47965 | 17.72938 | 37381 ft | 489 kts | 107° |
| 2026-04-30 21:46 | 45.45642 | 17.82052 | 37386 ft | 489 kts | 108° |
| 2026-04-30 21:47 | 45.43308 | 17.91174 | 37377 ft | 490 kts | 108° |
| 2026-04-30 21:47 | 45.40970 | 18.00277 | 37373 ft | 490 kts | 108° |
| 2026-04-30 21:48 | 45.38623 | 18.09378 | 37372 ft | 490 kts | 108° |
| 2026-04-30 21:48 | 45.36267 | 18.18481 | 37370 ft | 490 kts | 108° |
| 2026-04-30 21:49 | 45.33920 | 18.27511 | 37368 ft | 490 kts | 108° |
| 2026-04-30 21:49 | 45.31549 | 18.36598 | 37367 ft | 490 kts | 108° |
| 2026-04-30 21:50 | 45.29170 | 18.45683 | 37385 ft | 490 kts | 108° |
| 2026-04-30 21:50 | 45.26782 | 18.54766 | 37362 ft | 491 kts | 108° |
| 2026-04-30 21:51 | 45.24387 | 18.63840 | 37362 ft | 491 kts | 108° |
| 2026-04-30 21:51 | 45.21985 | 18.72905 | 37360 ft | 491 kts | 109° |
| 2026-04-30 21:52 | 45.19577 | 18.81961 | 37363 ft | 491 kts | 109° |
| 2026-04-30 21:52 | 45.17154 | 18.91039 | 37357 ft | 492 kts | 109° |
| 2026-04-30 21:53 | 45.14736 | 19.00061 | 37357 ft | 492 kts | 109° |
| 2026-04-30 21:53 | 45.12066 | 19.08992 | 37357 ft | 493 kts | 116° |
| 2026-04-30 21:54 | 45.08741 | 19.17504 | 37352 ft | 494 kts | 118° |
| 2026-04-30 21:54 | 45.05291 | 19.25925 | 37347 ft | 494 kts | 118° |
| 2026-04-30 21:55 | 45.01824 | 19.34321 | 37347 ft | 494 kts | 118° |
| 2026-04-30 21:55 | 44.98364 | 19.42714 | 37346 ft | 494 kts | 118° |
| 2026-04-30 21:56 | 44.94901 | 19.51112 | 37338 ft | 495 kts | 119° |
| 2026-04-30 21:56 | 44.91436 | 19.59496 | 37342 ft | 495 kts | 119° |
| 2026-04-30 21:57 | 44.87962 | 19.67877 | 37335 ft | 495 kts | 119° |
| 2026-04-30 21:57 | 44.84505 | 19.76188 | 37339 ft | 495 kts | 119° |
| 2026-04-30 21:58 | 44.81013 | 19.84562 | 37325 ft | 496 kts | 119° |
| 2026-04-30 21:58 | 44.77506 | 19.92944 | 37322 ft | 497 kts | 119° |
| 2026-04-30 21:59 | 44.73981 | 20.01346 | 37335 ft | 498 kts | 119° |
| 2026-04-30 22:00 | 44.68686 | 20.13917 | 37318 ft | 498 kts | 120° |
| 2026-04-30 22:00 | 44.63388 | 20.26442 | 37323 ft | 499 kts | 120° |
| 2026-04-30 22:01 | 44.59834 | 20.34814 | 37321 ft | 499 kts | 120° |
| 2026-04-30 22:01 | 44.56275 | 20.43172 | 37319 ft | 499 kts | 120° |
| 2026-04-30 22:02 | 44.52714 | 20.51510 | 37319 ft | 499 kts | 120° |
| 2026-04-30 22:02 | 44.49144 | 20.59844 | 37315 ft | 499 kts | 120° |
| 2026-04-30 22:03 | 44.45566 | 20.68175 | 37311 ft | 499 kts | 120° |
| 2026-04-30 22:03 | 44.41976 | 20.76507 | 37318 ft | 501 kts | 121° |
| 2026-04-30 22:04 | 44.38371 | 20.84850 | 37313 ft | 501 kts | 121° |
| 2026-04-30 22:05 | 44.32944 | 20.97364 | 37315 ft | 501 kts | 121° |
| 2026-04-30 22:05 | 44.29318 | 21.05696 | 37314 ft | 502 kts | 121° |
| 2026-04-30 22:06 | 44.25691 | 21.14005 | 37312 ft | 502 kts | 121° |
| 2026-04-30 22:06 | 44.20233 | 21.26464 | 37309 ft | 502 kts | 121° |
| 2026-04-30 22:07 | 44.16587 | 21.34757 | 37312 ft | 502 kts | 121° |
| 2026-04-30 22:07 | 44.12960 | 21.42980 | 37324 ft | 502 kts | 121° |
| 2026-04-30 22:08 | 44.09298 | 21.51262 | 37313 ft | 502 kts | 122° |
| 2026-04-30 22:08 | 44.05628 | 21.59538 | 37332 ft | 504 kts | 122° |
| 2026-04-30 22:09 | 44.01934 | 21.67844 | 37328 ft | 505 kts | 122° |
| 2026-04-30 22:09 | 43.98236 | 21.76135 | 37334 ft | 505 kts | 122° |
| 2026-04-30 22:10 | 43.94523 | 21.84437 | 37330 ft | 505 kts | 122° |
| 2026-04-30 22:10 | 43.90832 | 21.92665 | 37339 ft | 506 kts | 122° |
| 2026-04-30 22:11 | 43.85243 | 22.05078 | 37339 ft | 506 kts | 122° |
| 2026-04-30 22:12 | 43.81507 | 22.13348 | 37341 ft | 506 kts | 122° |
| 2026-04-30 22:12 | 43.77767 | 22.21602 | 37339 ft | 506 kts | 122° |
| 2026-04-30 22:13 | 43.74020 | 22.29849 | 37339 ft | 506 kts | 123° |
| 2026-04-30 22:13 | 43.70379 | 22.38174 | 37339 ft | 506 kts | 116° |
| 2026-04-30 22:14 | 43.68319 | 22.47361 | 37342 ft | 504 kts | 97° |
| 2026-04-30 22:14 | 43.67547 | 22.57004 | 37346 ft | 505 kts | 94° |
| 2026-04-30 22:15 | 43.66996 | 22.66683 | 37357 ft | 506 kts | 93° |
| 2026-04-30 22:15 | 43.66440 | 22.76361 | 37345 ft | 505 kts | 94° |
| 2026-04-30 22:16 | 43.65841 | 22.86037 | 37341 ft | 505 kts | 94° |
| 2026-04-30 22:17 | 43.64586 | 23.05335 | 37349 ft | 506 kts | 94° |
| 2026-04-30 22:17 | 43.63619 | 23.19864 | 37354 ft | 506 kts | 94° |
| 2026-04-30 22:18 | 43.62635 | 23.34400 | 37354 ft | 507 kts | 95° |
| 2026-04-30 22:19 | 43.61631 | 23.48948 | 37358 ft | 507 kts | 95° |
| 2026-04-30 22:20 | 43.60725 | 23.61847 | 37359 ft | 507 kts | 95° |
| 2026-04-30 22:20 | 43.59571 | 23.77977 | 37365 ft | 509 kts | 95° |
| 2026-04-30 22:21 | 43.58865 | 23.87700 | 37362 ft | 509 kts | 95° |
| 2026-04-30 22:21 | 43.58267 | 23.95836 | 37366 ft | 509 kts | 95° |
| 2026-04-30 22:22 | 43.57548 | 24.05507 | 37368 ft | 510 kts | 96° |
| 2026-04-30 22:22 | 43.56818 | 24.15222 | 37368 ft | 509 kts | 96° |
| 2026-04-30 22:23 | 43.56079 | 24.24951 | 37367 ft | 509 kts | 96° |
| 2026-04-30 22:23 | 43.55333 | 24.34657 | 37366 ft | 509 kts | 96° |
| 2026-04-30 22:24 | 43.54578 | 24.44380 | 37373 ft | 511 kts | 96° |
| 2026-04-30 22:24 | 43.53813 | 24.54114 | 37368 ft | 511 kts | 96° |
| 2026-04-30 22:25 | 43.53039 | 24.63852 | 37365 ft | 511 kts | 96° |
| 2026-04-30 22:25 | 43.52257 | 24.73587 | 37362 ft | 511 kts | 96° |
| 2026-04-30 22:26 | 43.51064 | 24.88239 | 37355 ft | 513 kts | 96° |
| 2026-04-30 22:27 | 43.50263 | 24.97950 | 37355 ft | 513 kts | 96° |
| 2026-04-30 22:27 | 43.49038 | 25.12602 | 37347 ft | 514 kts | 97° |
| 2026-04-30 22:28 | 43.47791 | 25.27293 | 37349 ft | 515 kts | 97° |
| 2026-04-30 22:29 | 43.46100 | 25.46846 | 37324 ft | 513 kts | 97° |
| 2026-04-30 22:31 | 43.43064 | 25.81020 | 37325 ft | 515 kts | 97° |
| 2026-04-30 22:32 | 43.40827 | 26.05467 | 37311 ft | 515 kts | 98° |
| 2026-04-30 22:33 | 43.38545 | 26.29830 | 37307 ft | 517 kts | 98° |
| 2026-04-30 22:35 | 43.36193 | 26.54365 | 37300 ft | 517 kts | 98° |
| 2026-04-30 22:36 | 43.33792 | 26.78839 | 37287 ft | 518 kts | 98° |
| 2026-04-30 22:37 | 43.31830 | 26.98440 | 37279 ft | 518 kts | 99° |
| 2026-04-30 22:38 | 43.29833 | 27.18050 | 37273 ft | 518 kts | 99° |
| 2026-04-30 22:39 | 43.28321 | 27.32673 | 37258 ft | 518 kts | 99° |
| 2026-04-30 22:40 | 43.25224 | 27.62048 | 37240 ft | 518 kts | 99° |
| 2026-04-30 22:41 | 43.22514 | 27.86530 | 37239 ft | 519 kts | 103° |
| 2026-04-30 22:43 | 43.17551 | 28.15323 | 37244 ft | 520 kts | 105° |
| 2026-04-30 22:44 | 43.14305 | 28.34651 | 37238 ft | 520 kts | 105° |
| 2026-04-30 22:45 | 43.09379 | 28.63630 | 37218 ft | 521 kts | 105° |
| 2026-04-30 22:47 | 43.04385 | 28.92506 | 37209 ft | 521 kts | 106° |
| 2026-04-30 22:48 | 43.01008 | 29.11775 | 37203 ft | 522 kts | 107° |
| 2026-04-30 22:49 | 42.95872 | 29.40691 | 37186 ft | 522 kts | 107° |
| 2026-04-30 22:51 | 42.90674 | 29.69500 | 37184 ft | 522 kts | 107° |
| 2026-04-30 22:52 | 42.88042 | 29.83921 | 37175 ft | 523 kts | 107° |
| 2026-04-30 22:53 | 42.84499 | 30.03155 | 37165 ft | 523 kts | 107° |
| 2026-04-30 22:53 | 42.81823 | 30.17556 | 37157 ft | 522 kts | 107° |
| 2026-04-30 22:55 | 42.77337 | 30.41459 | 37133 ft | 522 kts | 108° |
| 2026-04-30 22:56 | 42.73861 | 30.60680 | 37133 ft | 524 kts | 102° |
| 2026-04-30 22:57 | 42.71279 | 30.85272 | 37122 ft | 526 kts | 101° |
| 2026-04-30 22:58 | 42.69268 | 31.04914 | 37113 ft | 526 kts | 101° |
| 2026-04-30 22:59 | 42.66153 | 31.34427 | 37100 ft | 526 kts | 101° |